createdAt,value
2022-12-19T00:02:29.253Z,4.40
2022-12-19T00:05:02.999Z,5.22
2022-12-19T00:07:36.501Z,5.22
2022-12-19T00:10:10.373Z,4.80
2022-12-19T00:15:15.073Z,6.50
2022-12-19T00:17:48.466Z,4.85
2022-12-19T00:20:21.415Z,5.12
2022-12-19T00:22:54.130Z,6.00
2022-12-19T00:25:26.990Z,4.78
2022-12-19T00:28:00.752Z,5.80
2022-12-19T00:30:36.548Z,4.95
2022-12-19T00:33:09.259Z,5.42
2022-12-19T00:35:42.241Z,5.55
2022-12-19T00:40:47.690Z,5.45
2022-12-19T00:43:20.451Z,6.35
2022-12-19T00:45:53.252Z,6.67
2022-12-19T00:48:26.165Z,6.20
2022-12-19T00:51:05.688Z,5.90
2022-12-19T00:53:40.147Z,6.55
2022-12-19T00:56:20.284Z,6.42
2022-12-19T00:58:53.822Z,5.83
2022-12-19T01:01:32.007Z,6.28
2022-12-19T01:06:41.774Z,7.15
2022-12-19T01:12:05.521Z,7.30
2022-12-19T01:14:38.449Z,6.05
2022-12-19T01:17:13.159Z,7.10
2022-12-19T01:19:45.998Z,6.40
2022-12-19T01:24:52.248Z,6.15
2022-12-19T01:27:24.818Z,6.70
2022-12-19T01:29:58.136Z,6.30
2022-12-19T01:32:30.884Z,6.35
2022-12-19T01:35:06.195Z,6.37
2022-12-19T01:37:41.014Z,7.00
2022-12-19T01:40:15.396Z,7.10
2022-12-19T01:42:50.076Z,8.93
2022-12-19T01:45:39.476Z,7.50
2022-12-19T01:48:20.014Z,6.60
2022-12-19T01:51:02.671Z,7.72
2022-12-19T01:53:54.213Z,7.28
2022-12-19T01:56:34.465Z,6.92
2022-12-19T01:59:11.697Z,6.53
2022-12-19T02:01:51.642Z,6.47
2022-12-19T02:04:20.070Z,7.45
2022-12-19T02:06:55.307Z,6.00
2022-12-19T02:09:29.745Z,7.05
2022-12-19T02:12:02.933Z,7.08
2022-12-19T02:14:38.096Z,6.62
2022-12-19T02:17:36.537Z,6.28
2022-12-19T02:20:19.731Z,6.53
2022-12-19T02:23:19.991Z,6.60
2022-12-19T02:26:20.556Z,6.62
2022-12-19T02:29:17.007Z,7.55
2022-12-19T02:31:59.793Z,7.37
2022-12-19T02:35:00.635Z,6.67
2022-12-19T02:37:41.221Z,6.70
2022-12-19T02:40:27.588Z,7.05
2022-12-19T02:43:02.823Z,6.12
2022-12-19T02:45:38.532Z,6.53
2022-12-19T02:48:16.154Z,6.92
2022-12-19T02:50:50.536Z,6.05
2022-12-19T02:53:24.271Z,7.45
2022-12-19T02:56:23.376Z,6.95
2022-12-19T02:59:32.458Z,6.80
2022-12-19T03:02:15.923Z,6.20
2022-12-19T03:05:01.375Z,6.42
2022-12-19T03:07:38.461Z,6.35
2022-12-19T03:10:31.338Z,5.25
2022-12-19T03:13:23.758Z,7.00
2022-12-19T03:15:56.696Z,6.80
2022-12-19T03:18:30.249Z,6.37
2022-12-19T03:21:39.461Z,8.38
2022-12-19T03:24:13.896Z,5.92
2022-12-19T03:26:54.351Z,6.92
2022-12-19T03:29:34.506Z,6.90
2022-12-19T03:32:12.304Z,6.80
2022-12-19T03:34:57.604Z,7.92
2022-12-19T03:37:34.256Z,6.97
2022-12-19T03:40:14.942Z,7.72
2022-12-19T03:43:07.852Z,6.70
2022-12-19T03:46:03.563Z,7.10
2022-12-19T03:48:49.519Z,7.37
2022-12-19T03:52:03.243Z,6.55
2022-12-19T03:54:43.618Z,7.47
2022-12-19T03:57:21.341Z,7.37
2022-12-19T04:00:10.296Z,7.33
2022-12-19T04:02:49.273Z,6.90
2022-12-19T04:05:25.271Z,6.85
2022-12-19T04:08:01.976Z,6.53
2022-12-19T04:10:46.762Z,6.47
2022-12-19T04:13:24.063Z,7.03
2022-12-19T04:16:36.453Z,6.67
2022-12-19T04:19:44.165Z,6.92
2022-12-19T04:22:24.618Z,6.60
2022-12-19T04:24:58.882Z,7.03
2022-12-19T04:27:36.972Z,6.72
2022-12-19T04:30:11.126Z,6.83
2022-12-19T04:32:45.066Z,6.37
2022-12-19T04:35:17.999Z,6.50
2022-12-19T04:37:51.159Z,6.10
2022-12-19T04:40:24.237Z,7.45
2022-12-19T04:42:57.142Z,6.50
2022-12-19T04:45:29.951Z,6.10
2022-12-19T04:48:02.995Z,6.10
2022-12-19T04:50:36.453Z,6.33
2022-12-19T04:53:09.706Z,5.80
2022-12-19T04:55:42.789Z,6.62
2022-12-19T04:58:20.365Z,5.73
2022-12-19T05:00:50.947Z,6.05
2022-12-19T05:03:24.064Z,6.67
2022-12-19T05:06:12.538Z,7.20
2022-12-19T05:08:46.115Z,5.37
2022-12-19T05:11:20.141Z,5.92
2022-12-19T05:13:53.293Z,6.28
2022-12-19T05:16:26.014Z,5.72
2022-12-19T05:18:58.784Z,5.47
2022-12-19T05:21:31.823Z,5.83
2022-12-19T05:24:04.945Z,6.03
2022-12-19T05:26:38.162Z,5.33
2022-12-19T05:29:11.661Z,5.97
2022-12-19T05:31:45.055Z,6.65
2022-12-19T05:34:17.929Z,6.27
2022-12-19T05:36:51.613Z,5.50
2022-12-19T05:39:24.772Z,5.75
2022-12-19T05:41:57.660Z,5.40
2022-12-19T05:44:31.423Z,5.28
2022-12-19T05:47:04.205Z,5.67
2022-12-19T05:49:36.949Z,6.05
2022-12-19T05:52:12.613Z,5.87
2022-12-19T05:54:45.376Z,5.83
2022-12-19T05:57:18.291Z,4.50
2022-12-19T05:59:51.134Z,5.42
2022-12-19T06:02:24.285Z,4.80
2022-12-19T06:04:57.493Z,4.90
2022-12-19T06:07:30.785Z,4.30
2022-12-19T06:10:04.055Z,5.08
2022-12-19T06:12:37.295Z,4.30
2022-12-19T06:15:10.758Z,4.65
2022-12-19T06:17:43.735Z,5.47
2022-12-19T06:20:16.592Z,5.17
2022-12-19T06:22:49.594Z,4.47
2022-12-19T06:25:22.484Z,5.58
2022-12-19T06:27:55.294Z,4.97
2022-12-19T06:30:28.629Z,4.67
2022-12-19T06:33:01.383Z,5.50
2022-12-19T06:35:34.054Z,6.78
2022-12-19T06:38:07.033Z,5.75
2022-12-19T06:41:02.804Z,5.75
2022-12-19T06:43:35.928Z,5.55
2022-12-19T06:46:09.199Z,5.67
2022-12-19T06:48:42.420Z,5.60
2022-12-19T06:51:16.014Z,4.70
2022-12-19T06:53:48.899Z,5.20
2022-12-19T06:56:22.451Z,5.30
2022-12-19T06:58:55.936Z,4.92
2022-12-19T07:02:00.010Z,4.50
2022-12-19T07:04:43.336Z,5.97
2022-12-19T07:09:50.618Z,4.22
2022-12-19T07:12:24.594Z,4.72
2022-12-19T07:14:57.805Z,5.03
2022-12-19T07:17:31.455Z,5.53
2022-12-19T07:20:06.451Z,5.80
2022-12-19T07:22:39.691Z,5.50
2022-12-19T07:25:13.722Z,6.08
2022-12-19T07:27:47.784Z,5.03
2022-12-19T07:30:20.721Z,4.62
2022-12-19T07:32:54.220Z,4.75
2022-12-19T07:35:27.831Z,4.90
2022-12-19T07:38:08.819Z,4.97
2022-12-19T07:40:41.633Z,5.17
2022-12-19T07:43:14.519Z,5.42
2022-12-19T07:45:47.721Z,4.87
2022-12-19T07:48:20.439Z,5.50
2022-12-19T07:50:53.274Z,4.83
2022-12-19T07:53:26.956Z,4.10
2022-12-19T07:56:00.124Z,4.50
2022-12-19T07:58:33.139Z,4.37
2022-12-19T08:01:06.757Z,5.87
2022-12-19T08:03:41.067Z,5.20
2022-12-19T08:06:13.985Z,3.92
2022-12-19T08:08:47.143Z,3.92
2022-12-19T08:11:30.073Z,4.20
2022-12-19T08:14:03.276Z,5.03
2022-12-19T08:16:55.567Z,3.80
2022-12-19T08:19:11.411Z,4.47
2022-12-19T08:21:45.068Z,4.78
2022-12-19T08:24:17.974Z,4.03
2022-12-19T08:26:51.010Z,5.10
2022-12-19T08:29:24.071Z,4.70
2022-12-19T08:31:56.907Z,4.97
2022-12-19T08:34:29.649Z,5.10
2022-12-19T08:37:03.498Z,5.08
2022-12-19T08:39:36.768Z,6.30
2022-12-19T08:42:09.820Z,5.05
2022-12-19T08:44:42.821Z,4.62
2022-12-19T08:47:15.735Z,4.67
2022-12-19T08:49:48.507Z,5.42
2022-12-19T08:52:21.802Z,4.73
2022-12-19T08:54:54.398Z,4.97
2022-12-19T08:57:28.310Z,5.72
2022-12-19T09:00:01.161Z,4.60
2022-12-19T09:05:58.292Z,4.40
2022-12-19T09:07:42.984Z,5.72
2022-12-19T09:10:16.059Z,5.33
2022-12-19T09:12:57.303Z,5.35
2022-12-19T09:15:26.968Z,5.30
2022-12-19T09:17:59.849Z,5.67
2022-12-19T09:20:32.817Z,5.80
2022-12-19T09:23:05.719Z,5.15
2022-12-19T09:25:38.548Z,6.35
2022-12-19T09:28:27.269Z,5.50
2022-12-19T09:30:45.863Z,6.00
2022-12-19T09:33:18.882Z,6.58
2022-12-19T09:35:55.389Z,4.90
2022-12-19T09:38:30.945Z,5.53
2022-12-19T09:41:45.071Z,4.92
2022-12-19T09:44:55.101Z,4.87
2022-12-19T09:47:31.650Z,4.97
2022-12-19T09:50:06.414Z,5.45
2022-12-19T09:52:46.747Z,5.35
2022-12-19T09:55:34.848Z,5.35
2022-12-19T09:58:21.128Z,5.78
2022-12-19T10:00:59.969Z,5.22
2022-12-19T10:03:40.880Z,5.85
2022-12-19T10:07:09.383Z,5.42
2022-12-19T10:10:03.111Z,5.30
2022-12-19T10:12:42.260Z,5.05
2022-12-19T10:15:07.757Z,5.60
2022-12-19T10:18:06.576Z,5.40
2022-12-19T10:20:45.947Z,5.12
2022-12-19T10:23:47.183Z,5.00
2022-12-19T10:26:30.023Z,4.53
2022-12-19T10:29:33.404Z,5.10
2022-12-19T10:32:11.064Z,4.70
2022-12-19T10:34:47.366Z,5.33
2022-12-19T10:37:40.978Z,6.58
2022-12-19T10:40:29.278Z,5.35
2022-12-19T10:43:37.890Z,6.00
2022-12-19T10:46:16.348Z,5.30
2022-12-19T10:48:53.025Z,6.83
2022-12-19T10:51:30.857Z,5.80
2022-12-19T10:54:03.721Z,5.47
2022-12-19T10:56:38.225Z,5.42
2022-12-19T10:59:20.896Z,5.78
2022-12-19T11:02:00.794Z,6.65
2022-12-19T11:04:36.067Z,6.50
2022-12-19T11:07:21.988Z,6.00
2022-12-19T11:10:32.191Z,5.67
2022-12-19T11:16:14.627Z,5.25
2022-12-19T11:17:51.061Z,6.37
2022-12-19T11:27:09.396Z,5.10
2022-12-19T11:29:41.597Z,5.53
2022-12-19T11:29:46.625Z,6.17
2022-12-19T11:30:43.175Z,5.42
2022-12-19T11:30:59.590Z,5.90
2022-12-19T11:34:07.280Z,6.20
2022-12-19T11:36:59.653Z,6.12
2022-12-19T11:39:48.882Z,5.70
2022-12-19T11:42:45.783Z,7.08
2022-12-19T11:45:47.229Z,6.30
2022-12-19T11:48:39.507Z,6.37
2022-12-19T11:51:37.988Z,5.87
2022-12-19T11:54:14.748Z,6.65
2022-12-19T11:56:48.080Z,5.25
2022-12-19T11:59:36.975Z,5.95
2022-12-19T12:02:23.173Z,5.70
2022-12-19T12:05:03.743Z,5.75
2022-12-19T12:08:24.633Z,5.78
2022-12-19T12:12:47.491Z,6.53
2022-12-19T12:23:29.648Z,5.62
2022-12-19T12:29:43.381Z,5.33
2022-12-19T12:31:10.967Z,5.50
2022-12-19T12:31:31.253Z,5.55
2022-12-19T12:31:45.497Z,4.00
2022-12-19T12:31:50.787Z,4.47
2022-12-19T12:31:58.267Z,5.90
2022-12-19T12:33:52.956Z,5.22
2022-12-19T12:39:46.007Z,5.05
2022-12-19T12:43:02.846Z,5.12
2022-12-19T12:45:42.479Z,4.42
2022-12-19T12:48:38.057Z,5.17
2022-12-19T12:51:12.142Z,4.85
2022-12-19T12:53:48.241Z,6.00
2022-12-19T12:56:21.868Z,5.22
2022-12-19T12:58:59.417Z,4.80
2022-12-19T13:01:40.749Z,5.08
2022-12-19T13:04:18.303Z,4.28
2022-12-19T13:07:16.905Z,4.95
2022-12-19T13:09:54.424Z,4.53
2022-12-19T13:12:47.482Z,4.67
2022-12-19T13:15:39.340Z,4.90
2022-12-19T13:18:16.778Z,4.90
2022-12-19T13:20:50.442Z,4.20
2022-12-19T13:23:45.452Z,4.97
2022-12-19T13:28:55.784Z,5.10
2022-12-19T13:31:28.500Z,4.70
2022-12-19T13:34:14.650Z,5.42
2022-12-19T13:39:49.476Z,4.78
2022-12-19T13:39:54.775Z,5.15
2022-12-19T13:42:43.341Z,4.83
2022-12-19T13:45:23.377Z,4.72
2022-12-19T13:47:58.904Z,5.08
2022-12-19T13:50:40.760Z,5.60
2022-12-19T13:53:19.233Z,6.28
2022-12-19T13:55:57.338Z,4.87
2022-12-19T13:58:36.890Z,5.20
2022-12-19T14:01:20.999Z,4.65
2022-12-19T14:03:53.270Z,5.10
2022-12-19T14:06:32.514Z,6.12
2022-12-19T14:11:28.470Z,5.62
2022-12-19T14:13:46.658Z,5.58
2022-12-19T14:15:13.272Z,4.65
2022-12-19T14:17:35.244Z,5.22
2022-12-19T14:22:04.001Z,6.10
2022-12-19T14:23:03.043Z,4.85
2022-12-19T14:28:14.937Z,4.60
2022-12-19T14:28:30.232Z,5.35
2022-12-19T14:31:04.465Z,5.42
2022-12-19T14:36:34.609Z,5.80
2022-12-19T14:39:23.964Z,5.28
2022-12-19T14:42:04.600Z,6.85
2022-12-19T14:52:08.760Z,6.28
2022-12-19T14:53:27.769Z,6.37
2022-12-19T14:54:26.481Z,5.30
2022-12-19T14:54:44.436Z,5.90
2022-12-19T14:58:58.176Z,6.47
2022-12-19T15:01:34.204Z,6.00
2022-12-19T15:04:49.513Z,6.67
2022-12-19T15:07:06.901Z,6.75
2022-12-19T15:10:59.426Z,7.20
2022-12-19T15:14:48.563Z,6.40
2022-12-19T15:14:59.958Z,6.55
2022-12-19T15:17:33.634Z,5.95
2022-12-19T15:20:09.484Z,6.03
2022-12-19T15:22:43.391Z,6.05
2022-12-19T15:26:01.368Z,5.28
2022-12-19T15:28:18.627Z,5.37
2022-12-19T15:30:56.092Z,5.92
2022-12-19T15:33:30.024Z,5.70
2022-12-19T15:36:03.255Z,5.92
2022-12-19T15:38:37.101Z,5.30
2022-12-19T15:41:15.882Z,6.53
2022-12-19T15:44:05.351Z,5.78
2022-12-19T15:46:26.367Z,6.40
2022-12-19T15:48:59.501Z,7.15
2022-12-19T15:51:32.427Z,6.60
2022-12-19T15:56:43.778Z,6.53
2022-12-19T15:59:38.835Z,6.45
2022-12-19T16:02:22.115Z,6.25
2022-12-19T16:05:03.477Z,6.47
2022-12-19T16:07:31.134Z,4.60
2022-12-19T16:10:05.210Z,6.00
2022-12-19T16:12:45.069Z,6.55
2022-12-19T16:15:28.446Z,6.58
2022-12-19T16:18:03.896Z,6.80
2022-12-19T16:20:38.132Z,7.03
2022-12-19T16:23:11.332Z,5.72
2022-12-19T16:25:53.044Z,6.62
2022-12-19T16:28:34.226Z,6.30
2022-12-19T16:31:16.978Z,7.28
2022-12-19T16:33:49.966Z,6.20
2022-12-19T16:36:23.186Z,5.87
2022-12-19T16:38:56.058Z,5.73
2022-12-19T16:41:29.365Z,6.30
2022-12-19T16:44:03.479Z,6.87
2022-12-19T16:49:17.333Z,6.37
2022-12-19T16:51:51.199Z,6.50
2022-12-19T16:54:24.319Z,5.72
2022-12-19T16:56:57.230Z,6.63
2022-12-19T16:59:36.751Z,7.47
2022-12-19T17:02:23.256Z,6.65
2022-12-19T17:04:56.213Z,6.40
2022-12-19T17:07:29.710Z,6.67
2022-12-19T17:10:03.022Z,7.00
2022-12-19T17:12:36.288Z,7.13
2022-12-19T17:15:22.514Z,7.42
2022-12-19T17:17:59.419Z,7.75
2022-12-19T17:20:42.792Z,7.78
2022-12-19T17:23:22.252Z,7.25
2022-12-19T17:25:59.629Z,7.40
2022-12-19T17:28:32.595Z,6.30
2022-12-19T17:31:09.321Z,7.20
2022-12-19T17:33:42.985Z,7.17
2022-12-19T17:36:21.407Z,6.85
2022-12-19T17:38:51.907Z,7.40
2022-12-19T17:41:25.924Z,7.00
2022-12-19T17:43:58.911Z,7.80
2022-12-19T17:46:33.109Z,6.50
2022-12-19T17:51:37.786Z,6.92
2022-12-19T17:54:14.408Z,7.28
2022-12-19T17:56:47.890Z,7.33
2022-12-19T17:59:21.236Z,8.50
2022-12-19T18:01:54.970Z,6.30
2022-12-19T18:04:28.677Z,6.10
2022-12-19T18:07:02.907Z,8.15
2022-12-19T18:09:35.904Z,8.53
2022-12-19T18:12:09.815Z,8.25
2022-12-19T18:14:42.730Z,8.05
2022-12-19T18:17:20.317Z,8.35
2022-12-19T18:19:53.482Z,8.50
2022-12-19T18:22:26.224Z,7.93
2022-12-19T18:24:59.163Z,8.25
2022-12-19T18:27:32.364Z,8.23
2022-12-19T18:30:06.711Z,6.55
2022-12-19T18:32:39.662Z,7.50
2022-12-19T18:35:19.772Z,9.18
2022-12-19T18:37:53.196Z,7.92
2022-12-19T18:40:31.197Z,7.55
2022-12-19T18:43:01.098Z,7.67
2022-12-19T18:45:40.621Z,7.47
2022-12-19T18:48:28.782Z,8.00
2022-12-19T18:51:03.829Z,7.33
2022-12-19T18:53:37.323Z,8.15
2022-12-19T18:56:10.412Z,7.03
2022-12-19T18:58:43.635Z,7.92
2022-12-19T19:01:20.517Z,8.13
2022-12-19T19:03:57.016Z,7.83
2022-12-19T19:06:37.623Z,8.75
2022-12-19T19:09:14.910Z,7.58
2022-12-19T19:12:01.465Z,7.60
2022-12-19T19:14:34.893Z,7.40
2022-12-19T19:17:10.581Z,7.62
2022-12-19T19:19:44.617Z,6.97
2022-12-19T19:22:17.453Z,7.60
2022-12-19T19:24:50.762Z,7.05
2022-12-19T19:27:23.550Z,6.92
2022-12-19T19:29:56.835Z,7.58
2022-12-19T19:32:32.320Z,5.85
2022-12-19T19:35:05.772Z,7.53
2022-12-19T19:37:39.213Z,5.75
2022-12-19T19:40:13.414Z,6.95
2022-12-19T19:42:47.001Z,6.35
2022-12-19T19:45:19.781Z,7.47
2022-12-19T19:47:52.983Z,6.17
2022-12-19T19:50:25.814Z,6.55
2022-12-19T19:53:00.136Z,6.17
2022-12-19T19:55:32.999Z,5.55
2022-12-19T19:58:05.926Z,5.85
2022-12-19T20:00:38.918Z,5.62
2022-12-19T20:03:16.766Z,6.70
2022-12-19T20:05:47.062Z,6.67
2022-12-19T20:08:21.349Z,6.15
2022-12-19T20:10:58.975Z,6.27
2022-12-19T20:13:32.563Z,5.60
2022-12-19T20:16:16.077Z,6.25
2022-12-19T20:18:52.042Z,6.08
2022-12-19T20:21:25.070Z,5.58
2022-12-19T20:23:57.909Z,6.27
2022-12-19T20:26:30.885Z,5.95
2022-12-19T20:29:06.291Z,7.80
2022-12-19T20:31:40.091Z,6.03
2022-12-19T20:34:13.125Z,6.12
2022-12-19T20:36:45.881Z,5.87
2022-12-19T20:39:20.529Z,5.10
2022-12-19T20:41:55.210Z,6.12
2022-12-19T20:44:28.613Z,5.50
2022-12-19T20:47:01.540Z,5.35
2022-12-19T20:49:34.830Z,6.37
2022-12-19T20:52:07.705Z,5.92
2022-12-19T20:54:41.634Z,5.80
2022-12-19T20:57:14.621Z,6.22
2022-12-19T20:59:47.371Z,6.15
2022-12-19T21:02:20.313Z,6.03
2022-12-19T21:04:53.126Z,5.90
2022-12-19T21:07:25.985Z,6.05
2022-12-19T21:09:58.720Z,5.60
2022-12-19T21:12:31.585Z,6.40
2022-12-19T21:15:05.204Z,5.22
2022-12-19T21:17:38.544Z,5.05
2022-12-19T21:20:12.390Z,5.92
2022-12-19T21:22:45.180Z,5.25
2022-12-19T21:25:17.955Z,4.85
2022-12-19T21:27:50.727Z,6.12
2022-12-19T21:30:23.637Z,5.42
2022-12-19T21:32:56.527Z,5.73
2022-12-19T21:35:29.412Z,5.08
2022-12-19T21:38:02.615Z,5.12
2022-12-19T21:40:37.756Z,4.83
2022-12-19T21:43:12.201Z,4.83
2022-12-19T21:45:45.314Z,4.62
2022-12-19T21:48:18.123Z,5.12
2022-12-19T21:50:56.900Z,3.95
2022-12-19T21:53:29.727Z,5.33
2022-12-19T21:56:08.859Z,4.75
2022-12-19T21:58:41.549Z,4.87
2022-12-19T22:01:15.889Z,4.75
2022-12-19T22:03:49.396Z,4.65
2022-12-19T22:06:28.427Z,5.15
2022-12-19T22:09:00.572Z,5.33
2022-12-19T22:14:05.965Z,4.62
2022-12-19T22:16:39.258Z,4.25
2022-12-19T22:19:15.415Z,5.00
2022-12-19T22:21:49.348Z,4.50
2022-12-19T22:24:22.843Z,5.15
2022-12-19T22:26:55.582Z,5.30
2022-12-19T22:29:28.470Z,4.37
2022-12-19T22:32:01.127Z,4.83
2022-12-19T22:34:34.421Z,4.72
2022-12-19T22:37:07.302Z,4.70
2022-12-19T22:39:40.216Z,5.17
2022-12-19T22:42:12.933Z,5.03
2022-12-19T22:44:45.684Z,5.35
2022-12-19T22:47:18.381Z,4.70
2022-12-19T22:49:53.112Z,4.87
2022-12-19T22:52:26.045Z,6.25
2022-12-19T22:54:58.680Z,4.92
2022-12-19T22:57:31.610Z,4.78
2022-12-19T23:00:07.755Z,4.60
2022-12-19T23:02:44.250Z,5.30
2022-12-19T23:05:17.708Z,5.90
2022-12-19T23:07:50.443Z,5.62
2022-12-19T23:10:23.220Z,5.03
2022-12-19T23:12:56.648Z,6.35
2022-12-19T23:15:29.293Z,5.92
2022-12-19T23:18:02.063Z,5.25
2022-12-19T23:20:35.048Z,5.15
2022-12-19T23:23:07.709Z,5.90
2022-12-19T23:25:43.130Z,5.45
2022-12-19T23:28:16.031Z,5.42
2022-12-19T23:30:48.845Z,5.83
2022-12-19T23:33:21.536Z,5.83
2022-12-19T23:35:54.188Z,5.62
2022-12-19T23:38:28.154Z,5.97
2022-12-19T23:41:04.345Z,4.97
2022-12-19T23:43:38.370Z,5.97
2022-12-19T23:46:17.534Z,5.62
2022-12-19T23:48:50.817Z,5.70
2022-12-19T23:51:26.933Z,5.20
2022-12-19T23:53:59.863Z,6.15
2022-12-19T23:56:34.103Z,5.85
2022-12-19T23:59:07.141Z,6.40
